createdAt,value
2023-04-23T00:01:05.730Z,91662.27
2023-04-23T00:03:39.180Z,91661.69
2023-04-23T00:06:10.379Z,91661.84
2023-04-23T00:08:42.064Z,91661.31
2023-04-23T00:11:10.852Z,91663.34
2023-04-23T00:13:39.429Z,91662.83
2023-04-23T00:16:08.366Z,91660.86
2023-04-23T00:18:36.699Z,91661.61
2023-04-23T00:21:04.998Z,91664.07
2023-04-23T00:23:33.252Z,91668.46
2023-04-23T00:26:01.529Z,91670.02
2023-04-23T00:28:29.784Z,91668.07
2023-04-23T00:30:58.017Z,91664.31
2023-04-23T00:33:26.356Z,91665.64
2023-04-23T00:35:54.664Z,91659.52
2023-04-23T00:38:23.158Z,91663.77
2023-04-23T00:40:51.493Z,91664.30
2023-04-23T00:43:20.836Z,91662.45
2023-04-23T00:45:49.501Z,91662.60
2023-04-23T00:48:18.534Z,91670.09
2023-04-23T00:50:46.826Z,91667.94
2023-04-23T00:53:15.126Z,91660.39
2023-04-23T00:55:43.591Z,91663.09
2023-04-23T00:58:11.877Z,91666.60
2023-04-23T01:00:44.851Z,91669.28
2023-04-23T01:03:13.585Z,91669.95
2023-04-23T01:05:43.273Z,91670.76
2023-04-23T01:08:15.241Z,91671.41
2023-04-23T01:10:44.490Z,91668.12
2023-04-23T01:13:15.827Z,91669.60
2023-04-23T01:15:45.159Z,91667.48
2023-04-23T01:18:14.931Z,91670.38
2023-04-23T01:20:44.011Z,91667.98
2023-04-23T01:23:13.059Z,91667.55
2023-04-23T01:25:41.365Z,91669.95
2023-04-23T01:28:09.974Z,91668.39
2023-04-23T01:30:38.822Z,91670.13
2023-04-23T01:33:07.365Z,91670.16
2023-04-23T01:35:36.453Z,91671.90
2023-04-23T01:38:05.186Z,91669.50
2023-04-23T01:40:33.499Z,91672.94
2023-04-23T01:43:01.876Z,91669.88
2023-04-23T01:45:31.113Z,91669.05
2023-04-23T01:48:00.852Z,91671.89
2023-04-23T01:50:30.146Z,91668.52
2023-04-23T01:52:58.714Z,91668.45
2023-04-23T01:55:27.151Z,91668.42
2023-04-23T01:57:55.909Z,91664.39
2023-04-23T02:00:24.109Z,91668.65
2023-04-23T02:02:54.036Z,91663.79
2023-04-23T02:05:22.527Z,91664.63
2023-04-23T02:07:51.689Z,91663.96
2023-04-23T02:10:20.824Z,91660.69
2023-04-23T02:12:49.263Z,91655.61
2023-04-23T02:15:17.792Z,91654.73
2023-04-23T02:17:46.279Z,91655.55
2023-04-23T02:20:14.643Z,91655.54
2023-04-23T02:22:43.122Z,91653.14
2023-04-23T02:25:11.498Z,91656.73
2023-04-23T02:27:39.727Z,91656.36
2023-04-23T02:30:09.436Z,91658.08
2023-04-23T02:32:38.280Z,91657.63
2023-04-23T02:35:06.867Z,91657.85
2023-04-23T02:37:37.190Z,91659.48
2023-04-23T02:40:06.855Z,91659.48
2023-04-23T02:42:35.301Z,91656.13
2023-04-23T02:45:03.638Z,91651.05
2023-04-23T02:47:32.049Z,91652.23
2023-04-23T02:50:03.368Z,91647.69
2023-04-23T02:52:33.105Z,91653.60
2023-04-23T02:55:02.296Z,91650.45
2023-04-23T02:57:30.659Z,91653.45
2023-04-23T02:59:58.949Z,91657.27
2023-04-23T03:02:31.516Z,91660.56
2023-04-23T03:04:59.976Z,91663.18
2023-04-23T03:07:28.231Z,91663.63
2023-04-23T03:09:56.374Z,91663.31
2023-04-23T03:12:24.668Z,91670.94
2023-04-23T03:14:53.048Z,91669.80
2023-04-23T03:17:21.698Z,91669.80
2023-04-23T03:19:50.298Z,91666.24
2023-04-23T03:22:18.800Z,91658.98
2023-04-23T03:24:46.999Z,91664.67
2023-04-23T03:27:16.153Z,91665.66
2023-04-23T03:29:44.744Z,91663.85
2023-04-23T03:32:12.963Z,91661.45
2023-04-23T03:34:41.678Z,91661.08
2023-04-23T03:37:10.150Z,91661.23
2023-04-23T03:39:39.377Z,91661.45
2023-04-23T03:42:07.817Z,91663.99
2023-04-23T03:44:36.895Z,91666.69
2023-04-23T03:47:05.240Z,91668.64
2023-04-23T03:49:33.667Z,91672.52
2023-04-23T03:52:02.048Z,91667.13
2023-04-23T03:54:31.080Z,91665.70
2023-04-23T03:57:18.508Z,91669.83
2023-04-23T04:00:13.479Z,91672.54
2023-04-23T04:02:41.804Z,91670.45
2023-04-23T04:05:13.683Z,91671.80
2023-04-23T04:07:42.534Z,91670.97
2023-04-23T04:10:11.048Z,91671.94
2023-04-23T04:12:40.030Z,91670.07
2023-04-23T04:15:11.252Z,91674.48
2023-04-23T04:17:39.638Z,91674.33
2023-04-23T04:20:14.030Z,91678.98
2023-04-23T04:22:42.443Z,91682.71
2023-04-23T04:25:10.611Z,91681.44
2023-04-23T04:27:39.381Z,91680.52
2023-04-23T04:30:08.353Z,91682.16
2023-04-23T04:32:38.965Z,91684.86
2023-04-23T04:35:09.190Z,91686.36
2023-04-23T04:37:37.481Z,91690.76
2023-04-23T04:40:07.625Z,91691.70
2023-04-23T04:42:36.447Z,91692.33
2023-04-23T04:45:04.947Z,91689.92
2023-04-23T04:47:33.118Z,91685.95
2023-04-23T04:50:01.337Z,91684.22
2023-04-23T04:52:29.534Z,91685.46
2023-04-23T04:54:57.902Z,91686.61
2023-04-23T04:57:26.135Z,91687.59
2023-04-23T04:59:55.302Z,91684.76
2023-04-23T05:02:23.785Z,91685.39
2023-04-23T05:04:52.587Z,91688.59
2023-04-23T05:07:20.845Z,91685.33
2023-04-23T05:09:49.040Z,91685.93
2023-04-23T05:12:17.271Z,91688.64
2023-04-23T05:14:45.622Z,91688.16
2023-04-23T05:17:13.875Z,91691.12
2023-04-23T05:19:42.062Z,91689.52
2023-04-23T05:22:10.394Z,91692.53
2023-04-23T05:24:38.620Z,91693.07
2023-04-23T05:27:07.286Z,91690.21
2023-04-23T05:29:35.549Z,91689.70
2023-04-23T05:32:03.869Z,91688.59
2023-04-23T05:34:32.315Z,91689.43
2023-04-23T05:37:01.073Z,91690.69
2023-04-23T05:39:29.371Z,91687.17
2023-04-23T05:41:58.267Z,91685.12
2023-04-23T05:44:26.575Z,91681.77
2023-04-23T05:46:54.827Z,91688.58
2023-04-23T05:49:23.202Z,91683.54
2023-04-23T05:51:51.896Z,91683.88
2023-04-23T05:54:20.056Z,91683.01
2023-04-23T05:56:48.389Z,91688.88
2023-04-23T05:59:16.678Z,91689.68
2023-04-23T06:01:44.987Z,91692.11
2023-04-23T06:04:13.955Z,91693.97
2023-04-23T06:06:45.150Z,91693.23
2023-04-23T06:09:13.410Z,91695.51
2023-04-23T06:11:41.667Z,91694.11
2023-04-23T06:14:10.751Z,91696.34
2023-04-23T06:16:39.012Z,91690.74
2023-04-23T06:19:07.207Z,91693.98
2023-04-23T06:21:35.453Z,91694.29
2023-04-23T06:24:03.787Z,91696.94
2023-04-23T06:26:33.320Z,91695.93
2023-04-23T06:29:02.172Z,91694.23
2023-04-23T06:31:37.633Z,91693.80
2023-04-23T06:34:06.077Z,91693.37
2023-04-23T06:36:34.435Z,91688.41
2023-04-23T06:39:02.737Z,91689.09
2023-04-23T06:41:30.998Z,91682.90
2023-04-23T06:44:09.732Z,91681.60
2023-04-23T06:46:42.495Z,91679.38
2023-04-23T06:49:10.781Z,91681.39
2023-04-23T06:51:39.101Z,91684.77
2023-04-23T06:54:07.377Z,91678.59
2023-04-23T06:56:35.812Z,91681.27
2023-04-23T06:59:04.166Z,91679.30
2023-04-23T07:01:33.203Z,91677.48
2023-04-23T07:04:01.655Z,91677.89
2023-04-23T07:06:30.023Z,91679.70
2023-04-23T07:08:58.244Z,91678.95
2023-04-23T07:11:26.465Z,91681.54
2023-04-23T07:13:54.787Z,91682.32
2023-04-23T07:16:24.234Z,91679.44
2023-04-23T07:18:52.483Z,91678.95
2023-04-23T07:21:20.962Z,91681.22
2023-04-23T07:23:49.283Z,91682.22
2023-04-23T07:26:17.868Z,91683.43
2023-04-23T07:28:49.719Z,91680.27
2023-04-23T07:31:19.777Z,91679.08
2023-04-23T07:33:48.452Z,91679.89
2023-04-23T07:36:16.796Z,91679.73
2023-04-23T07:38:45.102Z,91679.77
2023-04-23T07:41:13.421Z,91681.05
2023-04-23T07:43:41.614Z,91678.64
2023-04-23T07:46:09.935Z,91683.08
2023-04-23T07:48:38.211Z,91678.67
2023-04-23T07:51:06.859Z,91679.34
2023-04-23T07:53:35.611Z,91677.22
2023-04-23T07:56:04.004Z,91679.70
2023-04-23T07:58:33.478Z,91673.89
2023-04-23T08:01:02.290Z,91672.77
2023-04-23T08:03:30.708Z,91668.84
2023-04-23T08:05:59.261Z,91664.98
2023-04-23T08:08:27.654Z,91662.98
2023-04-23T08:10:55.919Z,91664.81
2023-04-23T08:13:24.458Z,91661.16
2023-04-23T08:15:52.785Z,91657.75
2023-04-23T08:18:21.127Z,91659.80
2023-04-23T08:20:49.639Z,91660.86
2023-04-23T08:23:17.929Z,91657.55
2023-04-23T08:25:46.310Z,91657.63
2023-04-23T08:28:14.566Z,91655.15
2023-04-23T08:30:42.765Z,91652.36
2023-04-23T08:33:11.137Z,91656.25
2023-04-23T08:35:39.455Z,91652.63
2023-04-23T08:38:07.880Z,91648.45
2023-04-23T08:40:37.886Z,91646.98
2023-04-23T08:43:16.359Z,91647.36
2023-04-23T08:45:47.327Z,91643.44
2023-04-23T08:48:15.939Z,91642.20
2023-04-23T08:50:44.836Z,91637.84
2023-04-23T08:53:18.606Z,91639.12
2023-04-23T08:55:49.740Z,91638.33
2023-04-23T08:58:18.614Z,91640.59
2023-04-23T09:00:47.196Z,91637.20
2023-04-23T09:03:17.240Z,91638.30
2023-04-23T09:05:45.889Z,91635.31
2023-04-23T09:08:14.319Z,91638.67
2023-04-23T09:10:42.834Z,91631.60
2023-04-23T09:13:12.806Z,91631.07
2023-04-23T09:15:43.658Z,91626.96
2023-04-23T09:18:12.112Z,91622.31
2023-04-23T09:20:40.803Z,91622.35
2023-04-23T09:23:09.347Z,91617.77
2023-04-23T09:25:37.623Z,91616.21
2023-04-23T09:28:07.815Z,91610.20
2023-04-23T09:30:39.703Z,91609.46
2023-04-23T09:33:07.976Z,91609.54
2023-04-23T09:35:39.569Z,91615.52
2023-04-23T09:38:10.660Z,91612.80
2023-04-23T09:40:39.141Z,91611.45
2023-04-23T09:43:10.544Z,91614.20
2023-04-23T09:45:47.843Z,91614.28
2023-04-23T09:48:16.267Z,91613.78
2023-04-23T09:50:44.608Z,91613.12
2023-04-23T09:53:14.454Z,91613.81
2023-04-23T09:55:44.909Z,91610.66
2023-04-23T09:58:15.454Z,91607.13
2023-04-23T10:00:43.952Z,91603.91
2023-04-23T10:03:12.687Z,91600.21
2023-04-23T10:08:14.685Z,91603.76
2023-04-23T10:10:59.470Z,91602.83
2023-04-23T10:13:31.594Z,91606.72
2023-04-23T10:16:10.681Z,91603.56
2023-04-23T10:18:42.756Z,91603.77
2023-04-23T10:21:12.694Z,91605.85
2023-04-23T10:23:43.056Z,91600.08
2023-04-23T10:26:15.162Z,91594.86
2023-04-23T10:28:47.208Z,91596.66
2023-04-23T10:31:16.202Z,91591.08
2023-04-23T10:33:56.018Z,91594.93
2023-04-23T10:36:28.278Z,91595.45
2023-04-23T10:39:00.371Z,91594.89
2023-04-23T10:41:33.829Z,91596.98
2023-04-23T10:44:02.907Z,91600.27
2023-04-23T10:46:32.016Z,91599.54
2023-04-23T10:49:09.991Z,91603.43
2023-04-23T10:54:12.560Z,91602.03
2023-04-23T10:56:41.627Z,91601.98
2023-04-23T10:59:22.927Z,91597.05
2023-04-23T11:01:51.378Z,91596.34
2023-04-23T11:04:23.540Z,91594.88
2023-04-23T11:06:53.111Z,91592.27
2023-04-23T11:09:40.356Z,91589.57
2023-04-23T11:12:10.764Z,91590.47
2023-04-23T11:14:42.064Z,91595.83
2023-04-23T11:17:14.123Z,91596.60
2023-04-23T11:19:43.328Z,91593.89
2023-04-23T11:22:16.917Z,91591.98
2023-04-23T11:24:48.811Z,91592.55
2023-04-23T11:27:19.390Z,91591.39
2023-04-23T11:29:48.054Z,91587.55
2023-04-23T11:32:16.922Z,91588.02
2023-04-23T11:34:46.509Z,91584.59
2023-04-23T11:37:15.614Z,91584.52
2023-04-23T11:39:45.158Z,91584.41
2023-04-23T11:42:14.428Z,91581.29
2023-04-23T11:44:43.448Z,91579.38
2023-04-23T11:47:12.686Z,91577.79
2023-04-23T11:49:43.108Z,91579.83
2023-04-23T11:52:12.040Z,91572.92
2023-04-23T11:54:41.297Z,91569.66
2023-04-23T11:57:10.533Z,91570.16
2023-04-23T11:59:38.821Z,91568.31
2023-04-23T12:02:07.291Z,91568.42
2023-04-23T12:04:36.648Z,91563.34
2023-04-23T12:07:12.961Z,91560.42
2023-04-23T12:09:51.598Z,91555.67
2023-04-23T12:12:20.909Z,91553.48
2023-04-23T12:14:49.202Z,91548.13
2023-04-23T12:17:17.534Z,91540.61
2023-04-23T12:19:45.954Z,91538.23
2023-04-23T12:22:14.325Z,91534.80
2023-04-23T12:24:46.837Z,91534.09
2023-04-23T12:27:16.176Z,91534.16
2023-04-23T12:29:47.493Z,91534.23
2023-04-23T12:32:15.773Z,91534.09
2023-04-23T12:34:54.409Z,91522.52
2023-04-23T12:37:29.533Z,91521.46
2023-04-23T12:39:59.649Z,91519.81
2023-04-23T12:42:28.317Z,91519.14
2023-04-23T12:45:04.933Z,91517.67
2023-04-23T12:47:33.162Z,91511.67
2023-04-23T12:50:01.673Z,91518.21
2023-04-23T12:52:30.172Z,91514.98
2023-04-23T12:55:00.633Z,91508.64
2023-04-23T12:57:29.299Z,91509.62
2023-04-23T12:59:57.562Z,91510.05
2023-04-23T13:02:26.662Z,91512.23
2023-04-23T13:05:01.420Z,91511.09
2023-04-23T13:07:29.998Z,91508.90
2023-04-23T13:09:59.692Z,91511.42
2023-04-23T13:12:28.259Z,91507.23
2023-04-23T13:14:56.900Z,91505.66
2023-04-23T13:17:26.545Z,91506.43
2023-04-23T13:19:55.932Z,91504.95
2023-04-23T13:22:28.600Z,91507.33
2023-04-23T13:24:57.382Z,91506.72
2023-04-23T13:27:27.502Z,91509.19
2023-04-23T13:29:56.261Z,91506.80
2023-04-23T13:32:27.384Z,91507.61
2023-04-23T13:34:56.270Z,91507.09
2023-04-23T13:37:26.686Z,91506.52
2023-04-23T13:39:54.957Z,91510.92
2023-04-23T13:42:23.260Z,91513.52
2023-04-23T13:44:51.595Z,91513.54
2023-04-23T13:47:19.812Z,91511.09
2023-04-23T13:49:48.109Z,91508.52
2023-04-23T13:52:16.377Z,91504.40
2023-04-23T13:54:44.664Z,91504.24
2023-04-23T13:57:12.882Z,91500.11
2023-04-23T13:59:41.403Z,91498.37
2023-04-23T14:02:09.903Z,91491.00
2023-04-23T14:04:39.791Z,91493.91
2023-04-23T14:07:08.043Z,91491.27
2023-04-23T14:09:36.320Z,91492.18
2023-04-23T14:12:04.891Z,91492.06
2023-04-23T14:14:33.194Z,91484.27
2023-04-23T14:17:01.665Z,91483.50
2023-04-23T14:19:34.627Z,91477.15
2023-04-23T14:22:03.565Z,91476.04
2023-04-23T14:24:38.985Z,91470.77
2023-04-23T14:27:07.272Z,91467.19
2023-04-23T14:29:37.961Z,91471.41
2023-04-23T14:32:09.314Z,91469.23
2023-04-23T14:34:37.592Z,91469.16
2023-04-23T14:37:06.144Z,91471.42
2023-04-23T14:39:34.876Z,91468.69
2023-04-23T14:42:03.157Z,91468.67
2023-04-23T14:44:31.492Z,91471.84
2023-04-23T14:46:59.727Z,91474.94
2023-04-23T14:49:27.987Z,91475.24
2023-04-23T14:51:57.893Z,91472.48
2023-04-23T14:54:26.218Z,91468.83
2023-04-23T14:56:54.474Z,91472.67
2023-04-23T14:59:23.493Z,91471.63
2023-04-23T15:01:51.847Z,91470.63
2023-04-23T15:04:20.348Z,91471.54
2023-04-23T15:06:48.772Z,91467.48
2023-04-23T15:09:17.249Z,91468.46
2023-04-23T15:11:45.609Z,91467.93
2023-04-23T15:14:30.951Z,91464.55
2023-04-23T15:16:59.496Z,91462.91
2023-04-23T15:19:28.341Z,91467.09
2023-04-23T15:21:56.590Z,91469.16
2023-04-23T15:24:24.895Z,91468.72
2023-04-23T15:26:54.741Z,91470.67
2023-04-23T15:29:24.678Z,91470.97
2023-04-23T15:31:58.223Z,91472.90
2023-04-23T15:34:26.873Z,91471.06
2023-04-23T15:36:55.235Z,91470.87
2023-04-23T15:39:24.247Z,91475.15
2023-04-23T15:41:53.948Z,91474.98
2023-04-23T15:44:22.448Z,91470.91
2023-04-23T15:46:50.910Z,91469.73
2023-04-23T15:49:19.403Z,91469.16
2023-04-23T15:51:47.618Z,91467.88
2023-04-23T15:54:15.938Z,91468.39
2023-04-23T15:56:44.141Z,91466.94
2023-04-23T15:59:12.393Z,91466.38
2023-04-23T16:01:40.672Z,91467.41
2023-04-23T16:04:11.613Z,91469.72
2023-04-23T16:06:40.807Z,91470.45
2023-04-23T16:09:09.266Z,91468.23
2023-04-23T16:11:38.152Z,91468.37
2023-04-23T16:14:06.894Z,91467.65
2023-04-23T16:16:35.160Z,91466.30
2023-04-23T16:19:03.677Z,91463.80
2023-04-23T16:21:34.478Z,91465.23
2023-04-23T16:24:02.760Z,91465.77
2023-04-23T16:26:31.039Z,91465.71
2023-04-23T16:29:11.199Z,91466.33
2023-04-23T16:31:40.484Z,91463.86
2023-04-23T16:34:08.957Z,91467.98
2023-04-23T16:36:37.380Z,91468.92
2023-04-23T16:39:05.702Z,91465.16
2023-04-23T16:41:34.081Z,91464.39
2023-04-23T16:44:02.335Z,91463.69
2023-04-23T16:46:31.945Z,91468.70
2023-04-23T16:49:00.586Z,91469.66
2023-04-23T16:51:29.780Z,91469.33
2023-04-23T16:53:58.450Z,91472.93
2023-04-23T16:56:27.697Z,91470.56
2023-04-23T16:58:55.988Z,91471.86
2023-04-23T17:01:24.162Z,91473.17
2023-04-23T17:03:52.781Z,91470.85
2023-04-23T17:06:31.282Z,91468.19
2023-04-23T17:09:00.908Z,91468.35
2023-04-23T17:11:29.739Z,91466.94
2023-04-23T17:13:58.104Z,91465.40
2023-04-23T17:16:29.483Z,91465.88
2023-04-23T17:18:57.901Z,91468.85
2023-04-23T17:21:26.300Z,91467.27
2023-04-23T17:23:54.907Z,91470.67
2023-04-23T17:26:23.317Z,91474.20
2023-04-23T17:28:51.694Z,91474.42
2023-04-23T17:31:20.246Z,91473.52
2023-04-23T17:33:50.476Z,91480.38
2023-04-23T17:36:18.797Z,91482.72
2023-04-23T17:38:47.085Z,91483.70
2023-04-23T17:41:17.006Z,91487.84
2023-04-23T17:43:45.357Z,91486.48
2023-04-23T17:46:13.619Z,91490.40
2023-04-23T17:48:42.064Z,91493.58
2023-04-23T17:51:10.343Z,91496.39
2023-04-23T17:53:38.624Z,91495.36
2023-04-23T17:56:06.955Z,91496.40
2023-04-23T17:58:36.173Z,91502.48
2023-04-23T18:01:08.511Z,91502.51
2023-04-23T18:03:37.441Z,91504.19
2023-04-23T18:06:06.044Z,91505.52
2023-04-23T18:08:34.294Z,91512.02
2023-04-23T18:11:02.564Z,91515.48
2023-04-23T18:13:30.842Z,91520.82
2023-04-23T18:15:59.123Z,91525.08
2023-04-23T18:18:27.406Z,91528.44
2023-04-23T18:20:55.754Z,91528.71
2023-04-23T18:23:25.724Z,91530.45
2023-04-23T18:25:54.128Z,91530.52
2023-04-23T18:28:22.542Z,91535.20
2023-04-23T18:30:50.962Z,91536.11
2023-04-23T18:33:25.083Z,91535.63
2023-04-23T18:35:55.673Z,91535.05
2023-04-23T18:38:42.249Z,91538.76
2023-04-23T18:41:10.620Z,91538.40
2023-04-23T18:43:39.000Z,91538.38
2023-04-23T18:46:07.397Z,91536.67
2023-04-23T18:48:35.729Z,91538.86
2023-04-23T18:51:24.347Z,91537.98
2023-04-23T18:53:52.688Z,91534.98
2023-04-23T18:56:20.966Z,91532.80
2023-04-23T18:58:49.211Z,91537.00
2023-04-23T19:01:17.556Z,91533.40
2023-04-23T19:03:45.938Z,91529.80
2023-04-23T19:06:14.388Z,91530.31
2023-04-23T19:08:42.701Z,91531.29
2023-04-23T19:11:11.173Z,91527.57
2023-04-23T19:13:39.469Z,91528.30
2023-04-23T19:16:09.123Z,91528.73
2023-04-23T19:18:37.607Z,91529.23
2023-04-23T19:21:05.849Z,91526.95
2023-04-23T19:23:34.136Z,91528.17
2023-04-23T19:26:05.086Z,91528.42
2023-04-23T19:28:33.411Z,91527.42
2023-04-23T19:31:02.957Z,91527.96
2023-04-23T19:33:31.475Z,91533.83
2023-04-23T19:35:59.811Z,91529.36
2023-04-23T19:38:28.118Z,91532.59
2023-04-23T19:40:57.093Z,91528.49
2023-04-23T19:43:25.465Z,91525.27
2023-04-23T19:45:53.898Z,91530.05
2023-04-23T19:48:25.199Z,91530.59
2023-04-23T19:50:53.686Z,91529.41
2023-04-23T19:53:22.209Z,91533.98
2023-04-23T19:55:50.591Z,91533.21
2023-04-23T19:58:18.905Z,91529.31
2023-04-23T20:00:47.258Z,91528.08
2023-04-23T20:03:15.906Z,91531.84
2023-04-23T20:05:46.222Z,91531.85
2023-04-23T20:08:26.208Z,91528.27
2023-04-23T20:10:54.655Z,91530.39
2023-04-23T20:13:24.024Z,91531.00
2023-04-23T20:15:53.886Z,91528.20
2023-04-23T20:18:22.193Z,91528.02
2023-04-23T20:20:50.458Z,91528.61
2023-04-23T20:23:18.691Z,91528.92
2023-04-23T20:25:48.207Z,91526.68
2023-04-23T20:28:16.511Z,91528.02
2023-04-23T20:30:44.703Z,91524.71
2023-04-23T20:33:13.132Z,91524.94
2023-04-23T20:35:43.017Z,91526.48
2023-04-23T20:38:13.082Z,91523.98
2023-04-23T20:40:41.315Z,91522.15
2023-04-23T20:43:10.072Z,91523.31
2023-04-23T20:45:38.344Z,91518.52
2023-04-23T20:48:07.055Z,91514.40
2023-04-23T20:50:35.289Z,91510.65
2023-04-23T20:53:03.480Z,91509.80
2023-04-23T20:55:31.739Z,91505.90
2023-04-23T20:57:59.991Z,91508.77
2023-04-23T21:00:28.290Z,91507.69
2023-04-23T21:02:56.714Z,91513.05
2023-04-23T21:05:25.085Z,91510.02
2023-04-23T21:07:53.838Z,91508.09
2023-04-23T21:10:22.098Z,91504.20
2023-04-23T21:12:50.999Z,91504.33
2023-04-23T21:15:19.272Z,91501.67
2023-04-23T21:17:47.521Z,91502.84
2023-04-23T21:20:15.816Z,91498.66
2023-04-23T21:22:44.138Z,91494.53
2023-04-23T21:25:12.773Z,91491.15
2023-04-23T21:27:46.039Z,91492.60
2023-04-23T21:30:22.137Z,91491.76
2023-04-23T21:32:52.261Z,91485.77
2023-04-23T21:35:20.659Z,91486.52
2023-04-23T21:37:48.922Z,91483.13
2023-04-23T21:40:17.245Z,91483.52
2023-04-23T21:42:46.493Z,91477.00
2023-04-23T21:45:14.841Z,91477.54
2023-04-23T21:47:43.227Z,91473.11
2023-04-23T21:50:11.667Z,91471.04
2023-04-23T21:52:42.156Z,91472.39
2023-04-23T21:55:12.223Z,91470.42
2023-04-23T21:57:40.816Z,91466.27
2023-04-23T22:00:11.404Z,91462.08
2023-04-23T22:02:46.790Z,91459.73
2023-04-23T22:05:17.214Z,91457.97
2023-04-23T22:07:45.671Z,91462.59
2023-04-23T22:10:15.396Z,91459.84
2023-04-23T22:12:44.497Z,91457.58
2023-04-23T22:15:13.997Z,91458.98
2023-04-23T22:17:43.651Z,91461.41
2023-04-23T22:20:12.741Z,91461.06
2023-04-23T22:22:41.733Z,91460.61
2023-04-23T22:25:10.660Z,91463.14
2023-04-23T22:27:39.841Z,91462.77
2023-04-23T22:30:09.307Z,91462.62
2023-04-23T22:32:38.226Z,91463.19
2023-04-23T22:35:07.341Z,91460.59
2023-04-23T22:37:35.866Z,91457.59
2023-04-23T22:40:04.513Z,91458.17
2023-04-23T22:42:32.770Z,91453.76
2023-04-23T22:45:01.207Z,91450.73
2023-04-23T22:47:29.819Z,91448.51
2023-04-23T22:49:57.964Z,91438.63
2023-04-23T22:52:27.155Z,91434.99
2023-04-23T22:54:56.940Z,91431.73
2023-04-23T22:57:25.098Z,91432.70
2023-04-23T22:59:53.407Z,91433.09
2023-04-23T23:02:21.913Z,91433.71
2023-04-23T23:04:50.657Z,91428.48
2023-04-23T23:07:19.565Z,91429.31
2023-04-23T23:09:48.010Z,91430.77
2023-04-23T23:12:16.276Z,91429.59
2023-04-23T23:14:44.622Z,91433.39
2023-04-23T23:17:12.955Z,91430.84
2023-04-23T23:19:41.552Z,91428.39
2023-04-23T23:22:10.105Z,91419.33
2023-04-23T23:24:38.427Z,91418.08
2023-04-23T23:27:06.694Z,91413.22
2023-04-23T23:29:34.954Z,91410.98
2023-04-23T23:32:03.393Z,91410.21
2023-04-23T23:34:31.566Z,91405.03
2023-04-23T23:36:59.874Z,91402.20
2023-04-23T23:39:29.096Z,91398.70
2023-04-23T23:41:59.531Z,91404.02
2023-04-23T23:44:28.108Z,91403.14
2023-04-23T23:46:56.525Z,91403.70
2023-04-23T23:49:24.955Z,91402.10
2023-04-23T23:51:53.198Z,91399.70
2023-04-23T23:54:21.500Z,91402.42
2023-04-23T23:56:49.716Z,91403.61
2023-04-23T23:59:17.955Z,91400.29
